Time;durP1;ratioP1;P1;durP2;ratioP2;P2;SDS_P1;SDS_P2;PMS_P1;PMS_P2;Temp;Humidity;BMP_temperature;BMP_pressure;BME280_temperature;BME280_humidity;BME280_pressure;Samples;Min_cycle;Max_cycle;Signal;HPM_P1;HPM_P2
2021/12/20 00:00:56;;;;;;;33.22;4.72;;;7.10;99.90;;;;;;4967624;28;20105;-81
2021/12/20 00:03:21;;;;;;;32.47;4.90;;;6.10;99.90;;;;;;4951405;28;20047;-81
2021/12/20 00:05:47;;;;;;;34.70;5.78;;;6.10;99.90;;;;;;4984633;28;20054;-82
2021/12/20 00:08:13;;;;;;;34.35;4.55;;;6.70;99.90;;;;;;4967649;28;20058;-81
2021/12/20 00:10:39;;;;;;;43.00;5.30;;;6.10;99.90;;;;;;4951879;28;20051;-81
2021/12/20 00:13:04;;;;;;;33.88;4.93;;;6.10;99.90;;;;;;4951031;28;20148;-81
2021/12/20 00:15:30;;;;;;;34.53;4.18;;;6.10;99.90;;;;;;4968293;28;20043;-81
2021/12/20 00:17:56;;;;;;;20.83;3.80;;;7.00;99.90;;;;;;4967743;28;20039;-81
2021/12/20 00:20:21;;;;;;;42.38;5.38;;;6.30;99.90;;;;;;4967057;28;20049;-82
2021/12/20 00:22:47;;;;;;;36.80;5.80;;;6.70;99.90;;;;;;4984745;28;20050;-81
2021/12/20 00:25:13;;;;;;;24.30;4.25;;;6.00;99.90;;;;;;4967976;28;20438;-81
2021/12/20 00:27:39;;;;;;;27.10;5.07;;;6.00;99.90;;;;;;4967328;28;20043;-81
2021/12/20 00:30:07;;;;;;;31.98;4.20;;;6.50;99.90;;;;;;4968379;28;20046;-81
2021/12/20 00:32:32;;;;;;;30.65;4.57;;;5.90;99.90;;;;;;4967053;28;20043;-81
2021/12/20 00:34:58;;;;;;;35.80;5.10;;;6.70;99.90;;;;;;4951290;28;20046;-81
2021/12/20 00:40:21;;;;;;;33.42;4.05;;;5.80;99.90;;;;;;4971437;28;20058;-81
2021/12/20 00:42:53;;;;;;;33.08;4.85;;;5.80;99.90;;;;;;4970513;28;20053;-81
2021/12/20 00:45:21;;;;;;;28.75;3.80;;;5.70;99.90;;;;;;4971592;28;20403;-81
2021/12/20 00:47:47;;;;;;;40.60;4.68;;;5.70;99.90;;;;;;4970621;28;20047;-81
2021/12/20 00:50:15;;;;;;;37.08;5.13;;;5.70;99.90;;;;;;4971112;28;20086;-81
2021/12/20 00:52:42;;;;;;;35.00;4.30;;;6.60;99.90;;;;;;4954512;28;20053;-81
2021/12/20 00:55:08;;;;;;;32.72;4.97;;;5.70;99.90;;;;;;4971454;28;20162;-81
2021/12/20 00:57:34;;;;;;;26.65;4.45;;;5.70;99.90;;;;;;4970160;28;20158;-81
2021/12/20 01:00:00;;;;;;;34.80;4.85;;;5.70;99.90;;;;;;4955641;28;20053;-81
2021/12/20 01:02:26;;;;;;;27.75;3.88;;;6.20;99.90;;;;;;4969463;28;20039;-81
2021/12/20 01:04:52;;;;;;;30.60;4.95;;;6.30;99.90;;;;;;4970987;28;20098;-81
2021/12/20 01:07:18;;;;;;;30.05;4.30;;;6.30;99.90;;;;;;4970594;28;20050;-81
2021/12/20 01:09:44;;;;;;;30.92;3.60;;;6.90;99.90;;;;;;4954382;28;20050;-81
2021/12/20 01:12:16;;;;;;;26.80;2.80;;;6.30;99.90;;;;;;4987192;28;20050;-81
2021/12/20 01:14:43;;;;;;;20.40;2.83;;;5.80;99.90;;;;;;4955037;28;20487;-81
2021/12/20 01:17:08;;;;;;;15.95;2.60;;;5.90;99.90;;;;;;4953838;28;20673;-81
2021/12/20 01:19:36;;;;;;;22.13;3.42;;;5.90;99.90;;;;;;4970702;28;20161;-81
2021/12/20 01:22:04;;;;;;;18.38;2.97;;;5.80;99.90;;;;;;4954430;28;20053;-81
2021/12/20 01:24:29;;;;;;;27.13;3.17;;;5.80;99.90;;;;;;4954378;28;20038;-81
2021/12/20 01:26:55;;;;;;;16.98;2.67;;;5.70;99.90;;;;;;4954290;28;20483;-81
2021/12/20 01:29:22;;;;;;;20.85;2.60;;;5.80;99.90;;;;;;4954054;28;20050;-81
2021/12/20 01:31:48;;;;;;;25.48;2.90;;;5.70;99.90;;;;;;4969337;28;20419;-82
2021/12/20 01:34:14;;;;;;;19.73;2.75;;;5.60;99.90;;;;;;4954696;28;20046;-82
2021/12/20 01:36:40;;;;;;;20.05;2.90;;;6.00;99.90;;;;;;4954600;28;20142;-81
2021/12/20 01:39:05;;;;;;;23.95;2.80;;;5.80;99.90;;;;;;4953669;28;20133;-81
2021/12/20 01:41:37;;;;;;;19.70;2.17;;;6.50;99.90;;;;;;4953948;28;20050;-81
2021/12/20 01:44:03;;;;;;;19.58;2.70;;;5.40;99.90;;;;;;4970118;28;20082;-81
2021/12/20 01:46:28;;;;;;;18.10;2.50;;;5.30;99.90;;;;;;4969381;28;20089;-81
2021/12/20 01:48:55;;;;;;;25.30;2.97;;;5.30;99.90;;;;;;4952738;28;20043;-80
2021/12/20 01:54:02;;;;;;;13.27;2.22;;;5.20;99.90;;;;;;4970242;28;20058;-81
2021/12/20 01:56:29;;;;;;;23.48;2.92;;;5.10;99.90;;;;;;4954571;28;20102;-82
2021/12/20 01:59:04;;;;;;;13.50;1.90;;;5.70;99.90;;;;;;4956334;28;20097;-81
2021/12/20 02:01:30;;;;;;;19.00;2.83;;;5.00;99.90;;;;;;4972738;28;20093;-81
2021/12/20 02:03:57;;;;;;;20.08;2.10;;;4.90;99.90;;;;;;4972707;28;20038;-81
2021/12/20 02:06:29;;;;;;;18.67;2.45;;;5.60;99.90;;;;;;4956248;28;20042;-81
2021/12/20 02:08:58;;;;;;;14.30;1.88;;;4.80;99.90;;;;;;4957626;28;20141;-81
2021/12/20 02:11:24;;;;;;;18.98;2.97;;;4.80;99.90;;;;;;4972750;28;20048;-81
2021/12/20 02:13:50;;;;;;;19.95;2.53;;;4.70;99.90;;;;;;4988651;28;20050;-81
2021/12/20 02:16:17;;;;;;;20.35;2.80;;;4.80;99.90;;;;;;4973183;28;20132;-81
2021/12/20 02:18:43;;;;;;;19.50;2.40;;;4.80;99.90;;;;;;4988271;28;20053;-81
2021/12/20 02:21:09;;;;;;;18.25;2.55;;;4.50;99.90;;;;;;4972700;28;20693;-81
2021/12/20 02:23:35;;;;;;;22.92;2.92;;;4.40;99.90;;;;;;4955907;28;20090;-81
2021/12/20 02:26:00;;;;;;;24.15;3.03;;;4.30;99.90;;;;;;4973344;28;20185;-81
2021/12/20 02:28:30;;;;;;;19.85;3.55;;;4.30;99.90;;;;;;4971867;28;20054;-81
2021/12/20 02:36:57;;;;;;;20.95;2.05;;;4.20;99.90;;;;;;4989499;28;20108;-81
2021/12/20 02:36:59;;;;;;;24.00;3.05;;;4.60;99.90;;;;;;4972363;28;20054;-81
2021/12/20 02:39:25;;;;;;;26.58;2.53;;;4.10;99.90;;;;;;4971842;28;20050;-81
2021/12/20 02:41:51;;;;;;;22.70;3.15;;;4.10;99.90;;;;;;4971995;28;20050;-81
2021/12/20 02:44:19;;;;;;;27.80;3.17;;;4.20;99.90;;;;;;4971942;28;20046;-81
2021/12/20 02:49:20;;;;;;;22.80;3.05;;;4.20;99.90;;;;;;4971342;28;20141;-81
2021/12/20 02:51:48;;;;;;;14.93;2.63;;;4.20;99.90;;;;;;4988815;28;20093;-81
2021/12/20 02:54:14;;;;;;;19.83;2.85;;;4.70;99.90;;;;;;4972168;28;20054;-81
2021/12/20 02:56:41;;;;;;;26.60;3.58;;;4.20;99.90;;;;;;4971965;28;20042;-80
2021/12/20 02:59:07;;;;;;;13.88;2.35;;;4.70;99.90;;;;;;4972135;28;20498;-81
2021/12/20 03:01:34;;;;;;;20.30;2.72;;;4.50;99.90;;;;;;4970927;28;20812;-81
2021/12/20 03:04:01;;;;;;;17.65;2.25;;;4.30;99.90;;;;;;4971026;28;20042;-81
2021/12/20 03:06:29;;;;;;;21.40;2.70;;;4.40;99.90;;;;;;4971354;28;20046;-81
2021/12/20 03:08:57;;;;;;;31.42;2.72;;;5.30;99.90;;;;;;4988003;28;20046;-81
2021/12/20 03:11:25;;;;;;;25.30;3.05;;;4.30;99.90;;;;;;4971676;28;20387;-81
2021/12/20 03:14:04;;;;;;;25.30;2.45;;;4.30;99.90;;;;;;4955965;28;20089;-81
2021/12/20 03:16:29;;;;;;;12.70;1.63;;;4.90;99.90;;;;;;4970943;28;20045;-81
2021/12/20 03:18:55;;;;;;;17.27;3.38;;;4.10;99.90;;;;;;4971244;28;20049;-81
2021/12/20 03:21:20;;;;;;;18.33;2.83;;;4.00;99.90;;;;;;4971644;28;20038;-81
2021/12/20 03:23:47;;;;;;;13.80;1.88;;;3.90;99.90;;;;;;4987444;28;20049;-81
2021/12/20 03:26:13;;;;;;;20.48;1.98;;;4.90;99.90;;;;;;4987860;28;20046;-81
2021/12/20 03:28:38;;;;;;;20.50;2.53;;;4.50;99.90;;;;;;4971442;28;20054;-81
2021/12/20 03:31:04;;;;;;;15.68;2.60;;;3.60;99.90;;;;;;4955461;28;20490;-81
2021/12/20 03:33:29;;;;;;;15.82;1.77;;;3.60;99.90;;;;;;4970354;28;20402;-81
2021/12/20 03:35:55;;;;;;;16.27;1.85;;;3.50;99.90;;;;;;4972062;28;20104;-81
2021/12/20 03:38:21;;;;;;;17.08;2.10;;;3.40;99.90;;;;;;4953774;28;20046;-81
2021/12/20 03:40:47;;;;;;;19.05;2.47;;;3.30;99.90;;;;;;4971956;28;20054;-81
2021/12/20 03:43:13;;;;;;;24.83;2.83;;;3.20;99.90;;;;;;4971327;28;20133;-81
2021/12/20 03:45:40;;;;;;;15.60;2.20;;;3.20;99.90;;;;;;4970457;28;20041;-81
2021/12/20 03:48:06;;;;;;;17.67;1.95;;;3.10;99.90;;;;;;4970867;28;20046;-81
2021/12/20 03:50:32;;;;;;;17.10;2.75;;;3.10;99.90;;;;;;4970633;28;20048;-81
2021/12/20 03:52:57;;;;;;;16.77;2.47;;;3.00;99.90;;;;;;4955381;28;20061;-81
2021/12/20 03:55:23;;;;;;;16.60;2.15;;;3.70;99.90;;;;;;4970415;28;20475;-81
2021/12/20 03:57:49;;;;;;;16.63;2.75;;;2.90;99.90;;;;;;4955230;28;20142;-82
2021/12/20 04:00:15;;;;;;;13.65;1.98;;;2.80;99.90;;;;;;4954837;28;20124;-81
2021/12/20 04:02:45;;;;;;;25.85;2.88;;;2.80;99.90;;;;;;4986475;28;20108;-82
2021/12/20 04:05:11;;;;;;;20.30;2.88;;;2.60;99.90;;;;;;4987431;28;20950;-82
2021/12/20 04:07:38;;;;;;;16.20;2.40;;;2.60;99.90;;;;;;4954480;28;20046;-81
2021/12/20 04:10:05;;;;;;;19.77;2.58;;;2.60;99.90;;;;;;4988145;28;20078;-82
2021/12/20 04:12:31;;;;;;;16.35;3.00;;;2.50;99.90;;;;;;4971630;28;20050;-82
2021/12/20 04:14:57;;;;;;;13.32;2.33;;;2.50;99.90;;;;;;4975594;28;20188;-81
2021/12/20 04:17:23;;;;;;;21.60;2.75;;;2.50;99.90;;;;;;4974081;28;20046;-81
2021/12/20 04:19:49;;;;;;;20.50;3.40;;;2.40;99.90;;;;;;4974326;28;20112;-81
2021/12/20 04:22:15;;;;;;;22.15;3.10;;;2.40;99.90;;;;;;4975234;28;20073;-81
2021/12/20 04:24:42;;;;;;;28.08;3.08;;;2.30;99.90;;;;;;4958469;28;20481;-81
2021/12/20 04:27:08;;;;;;;13.70;2.10;;;2.30;99.90;;;;;;4974118;28;20054;-81
2021/12/20 04:29:34;;;;;;;12.30;1.90;;;2.20;99.90;;;;;;4975013;28;20050;-81
2021/12/20 04:31:59;;;;;;;10.65;1.55;;;2.10;99.90;;;;;;4973990;28;20062;-81
2021/12/20 04:34:25;;;;;;;16.73;2.60;;;2.10;99.90;;;;;;4973841;28;20488;-81
2021/12/20 04:36:52;;;;;;;8.27;1.80;;;2.00;99.90;;;;;;4974679;28;20046;-81
2021/12/20 04:39:21;;;;;;;20.20;2.40;;;1.90;99.90;;;;;;4990665;28;20418;-81
2021/12/20 04:41:46;;;;;;;15.18;2.13;;;1.90;99.90;;;;;;4973919;28;20042;-82
2021/12/20 04:44:12;;;;;;;18.70;2.20;;;1.90;99.90;;;;;;4959216;28;20041;-82
2021/12/20 04:46:38;;;;;;;20.98;2.83;;;1.80;99.90;;;;;;4974930;28;20049;-82
2021/12/20 04:49:04;;;;;;;17.83;2.30;;;1.80;99.90;;;;;;4972856;28;20509;-81
2021/12/20 04:51:29;;;;;;;21.92;2.75;;;1.80;99.90;;;;;;4990853;28;20064;-82
2021/12/20 04:53:55;;;;;;;33.25;2.72;;;1.70;99.90;;;;;;4958318;28;20412;-82
2021/12/20 04:56:21;;;;;;;19.20;2.47;;;1.70;99.90;;;;;;4957725;28;20050;-81
2021/12/20 04:58:47;;;;;;;21.10;3.17;;;1.70;99.90;;;;;;4958321;28;20116;-82
2021/12/20 05:01:12;;;;;;;17.50;3.15;;;1.70;99.90;;;;;;4973975;28;20189;-81
2021/12/20 05:03:38;;;;;;;19.40;3.05;;;1.70;99.90;;;;;;4956494;28;20046;-82
2021/12/20 05:06:04;;;;;;;22.17;3.17;;;1.70;99.90;;;;;;4974455;28;20046;-81
2021/12/20 05:08:46;;;;;;;20.13;2.70;;;1.70;99.90;;;;;;4972383;28;20046;-82
2021/12/20 05:11:11;;;;;;;18.90;2.25;;;1.70;99.90;;;;;;4974792;28;20054;-81
2021/12/20 05:13:37;;;;;;;13.93;2.63;;;1.60;99.90;;;;;;4973959;28;20046;-82
2021/12/20 05:16:03;;;;;;;20.95;2.58;;;1.60;99.90;;;;;;4957684;28;20489;-81
2021/12/20 05:18:29;;;;;;;16.65;2.70;;;1.60;99.90;;;;;;4989625;28;20050;-82
2021/12/20 05:20:54;;;;;;;25.10;2.75;;;1.60;99.90;;;;;;4991041;28;20458;-82
2021/12/20 05:23:20;;;;;;;18.48;2.63;;;1.60;99.90;;;;;;4972155;28;20053;-81
2021/12/20 05:25:46;;;;;;;24.75;2.63;;;1.60;99.90;;;;;;4974599;28;20054;-83
2021/12/20 05:28:12;;;;;;;24.90;2.90;;;1.60;99.90;;;;;;4973546;28;20054;-83
2021/12/20 05:30:37;;;;;;;16.73;2.10;;;1.50;99.90;;;;;;4973342;28;20046;-82
2021/12/20 05:33:03;;;;;;;12.80;2.30;;;1.50;99.90;;;;;;4973434;28;20042;-83
2021/12/20 05:35:29;;;;;;;13.05;2.20;;;1.50;99.90;;;;;;4957203;28;20490;-83
2021/12/20 05:37:56;;;;;;;20.23;2.35;;;1.40;99.90;;;;;;4978659;28;20064;-82
2021/12/20 05:40:22;;;;;;;21.20;3.05;;;1.40;99.90;;;;;;5005490;28;20061;-82
2021/12/20 05:42:48;;;;;;;18.98;2.65;;;1.40;99.90;;;;;;4976809;28;20124;-82
2021/12/20 05:45:14;;;;;;;23.70;3.30;;;1.30;99.90;;;;;;4976161;28;20052;-83
2021/12/20 05:47:41;;;;;;;19.90;2.78;;;1.30;99.90;;;;;;4975842;28;20552;-80
2021/12/20 05:50:08;;;;;;;19.38;2.90;;;2.20;99.90;;;;;;4977101;28;20482;-80
2021/12/20 05:52:34;;;;;;;17.85;3.58;;;1.20;99.90;;;;;;4991448;28;20116;-80
2021/12/20 05:55:00;;;;;;;17.15;2.75;;;1.20;99.90;;;;;;4976792;28;20555;-79
2021/12/20 05:57:26;;;;;;;21.33;3.30;;;1.20;99.90;;;;;;4991898;28;20046;-80
2021/12/20 05:59:52;;;;;;;16.80;2.33;;;1.20;99.90;;;;;;4992517;28;20111;-79
2021/12/20 06:02:17;;;;;;;13.60;1.98;;;1.10;99.90;;;;;;4975494;28;20046;-79
2021/12/20 06:04:43;;;;;;;19.65;2.90;;;1.10;99.90;;;;;;4992011;28;20138;-80
2021/12/20 06:07:09;;;;;;;17.17;3.03;;;1.10;99.90;;;;;;4992647;28;20129;-80
2021/12/20 06:09:35;;;;;;;18.67;2.60;;;1.10;99.90;;;;;;4992214;28;20069;-79
2021/12/20 06:12:01;;;;;;;12.90;2.35;;;1.50;99.90;;;;;;4986544;28;20394;-80
2021/12/20 06:14:28;;;;;;;22.25;2.85;;;1.10;99.90;;;;;;4956918;28;20088;-79
2021/12/20 06:16:55;;;;;;;21.92;3.55;;;1.10;99.90;;;;;;4972146;28;20101;-80
2021/12/20 06:19:23;;;;;;;19.88;2.95;;;1.00;99.90;;;;;;4988103;28;20618;-79
2021/12/20 06:21:49;;;;;;;22.15;2.75;;;1.00;99.90;;;;;;4972909;28;20130;-79
2021/12/20 06:24:15;;;;;;;18.05;2.95;;;0.90;99.90;;;;;;4972889;28;20502;-79
2021/12/20 06:26:40;;;;;;;14.27;2.15;;;0.90;99.90;;;;;;4974180;28;20490;-81
2021/12/20 06:29:06;;;;;;;18.70;2.47;;;0.90;99.90;;;;;;4965303;28;20403;-82
2021/12/20 06:31:32;;;;;;;19.02;2.15;;;0.80;99.90;;;;;;4991362;28;20038;-82
2021/12/20 06:33:57;;;;;;;18.45;2.20;;;0.80;99.90;;;;;;4990411;28;20068;-81
2021/12/20 06:36:25;;;;;;;14.15;2.00;;;0.80;99.90;;;;;;4975780;28;20030;-81
2021/12/20 06:38:53;;;;;;;25.88;2.88;;;0.80;99.90;;;;;;4975527;28;20045;-81
2021/12/20 06:41:20;;;;;;;28.83;3.22;;;0.80;99.90;;;;;;4991126;28;20216;-82
2021/12/20 06:43:46;;;;;;;23.40;2.65;;;0.80;99.90;;;;;;4975921;28;20057;-82
2021/12/20 06:46:14;;;;;;;23.60;2.95;;;0.70;99.90;;;;;;4992354;28;20077;-82
2021/12/20 06:48:40;;;;;;;18.85;2.95;;;0.70;99.90;;;;;;4990505;28;20133;-82
2021/12/20 06:51:05;;;;;;;20.05;2.80;;;0.70;99.90;;;;;;4976177;28;20180;-81
2021/12/20 06:53:31;;;;;;;23.05;2.80;;;0.70;99.90;;;;;;4975062;28;20393;-81
2021/12/20 06:55:57;;;;;;;20.50;3.00;;;0.70;99.90;;;;;;4990998;28;20072;-82
2021/12/20 06:58:23;;;;;;;15.93;2.22;;;0.70;99.90;;;;;;4974711;28;20456;-81
2021/12/20 07:00:51;;;;;;;19.08;2.65;;;0.60;99.90;;;;;;4992175;28;20490;-81
2021/12/20 07:03:17;;;;;;;12.43;2.65;;;0.60;99.90;;;;;;4973730;28;20050;-81
2021/12/20 07:05:43;;;;;;;18.88;3.33;;;0.60;99.90;;;;;;4972546;28;20069;-81
2021/12/20 07:08:09;;;;;;;14.30;2.38;;;0.50;99.90;;;;;;4990631;28;20490;-81
2021/12/20 07:10:34;;;;;;;18.77;3.47;;;0.50;99.90;;;;;;4975502;28;20161;-81
2021/12/20 07:13:00;;;;;;;13.00;3.28;;;0.50;99.90;;;;;;4991968;28;20050;-81
2021/12/20 07:15:27;;;;;;;17.70;3.13;;;0.40;99.90;;;;;;4974407;28;20050;-81
2021/12/20 07:17:52;;;;;;;20.48;4.53;;;0.50;99.90;;;;;;4991162;28;20084;-81
2021/12/20 07:20:19;;;;;;;15.68;3.85;;;0.50;99.90;;;;;;4974842;28;20038;-81
2021/12/20 07:22:45;;;;;;;20.80;3.63;;;0.50;99.90;;;;;;4975041;28;20461;-81
2021/12/20 07:25:11;;;;;;;21.60;3.88;;;0.40;99.90;;;;;;4975809;28;20107;-81
2021/12/20 07:27:38;;;;;;;24.38;4.97;;;0.40;99.90;;;;;;4974641;28;20053;-81
2021/12/20 07:30:04;;;;;;;22.48;4.35;;;0.40;99.90;;;;;;4991733;28;20056;-81
2021/12/20 07:32:30;;;;;;;18.08;3.88;;;0.40;99.90;;;;;;4989697;28;20397;-81
2021/12/20 07:34:56;;;;;;;15.90;3.45;;;0.40;99.90;;;;;;4975212;28;20061;-81
2021/12/20 07:37:25;;;;;;;18.75;3.47;;;0.30;99.90;;;;;;4989319;28;20085;-81
2021/12/20 07:39:50;;;;;;;13.82;3.00;;;0.80;99.90;;;;;;4989624;28;20140;-81
2021/12/20 07:42:16;;;;;;;19.08;2.88;;;0.20;99.90;;;;;;4971544;28;20137;-81
2021/12/20 07:44:42;;;;;;;14.75;2.33;;;0.20;99.90;;;;;;4970916;28;20054;-81
2021/12/20 07:47:08;;;;;;;18.45;2.72;;;0.20;99.90;;;;;;4970717;28;20428;-81
2021/12/20 07:49:34;;;;;;;22.20;2.72;;;0.10;99.90;;;;;;4965468;28;20579;-81
2021/12/20 07:52:00;;;;;;;19.25;2.80;;;0.10;99.90;;;;;;4964940;28;20070;-81
2021/12/20 07:54:26;;;;;;;27.25;3.38;;;0.10;99.90;;;;;;4964293;28;20034;-81
2021/12/20 07:56:52;;;;;;;14.05;2.88;;;0.10;99.90;;;;;;4979751;28;20057;-81
2021/12/20 07:59:18;;;;;;;21.95;5.10;;;0.10;99.90;;;;;;5005683;28;20053;-81
2021/12/20 08:01:43;;;;;;;24.63;4.47;;;0.10;99.90;;;;;;4990597;28;20108;-81
2021/12/20 08:04:09;;;;;;;23.25;4.30;;;0.20;99.90;;;;;;4974506;28;20045;-81
2021/12/20 08:06:35;;;;;;;26.00;4.78;;;0.20;99.90;;;;;;4989875;28;20073;-81
2021/12/20 08:09:02;;;;;;;17.10;4.15;;;0.30;99.90;;;;;;4990531;28;20052;-81
2021/12/20 08:11:27;;;;;;;21.35;3.72;;;1.00;99.90;;;;;;4972726;28;20462;-80
2021/12/20 08:13:53;;;;;;;20.13;3.58;;;0.20;99.90;;;;;;4970725;28;20081;-81
2021/12/20 08:16:19;;;;;;;20.38;3.38;;;0.30;99.90;;;;;;4954877;28;20054;-80
2021/12/20 08:18:47;;;;;;;16.52;3.42;;;0.90;99.90;;;;;;4953584;28;20051;-81
2021/12/20 08:21:15;;;;;;;21.20;3.45;;;0.30;99.90;;;;;;4971761;28;20042;-82
2021/12/20 08:23:41;;;;;;;20.02;3.10;;;1.10;99.90;;;;;;4976998;28;20034;-80
2021/12/20 08:26:08;;;;;;;17.85;2.88;;;0.20;99.90;;;;;;5006424;28;20465;-81
2021/12/20 08:28:35;;;;;;;16.33;3.03;;;0.30;99.90;;;;;;4973766;28;20073;-81
2021/12/20 08:31:02;;;;;;;23.23;3.60;;;0.20;99.90;;;;;;4974457;28;20041;-82
2021/12/20 08:33:28;;;;;;;20.45;4.38;;;0.20;99.90;;;;;;4988763;28;20042;-81
2021/12/20 08:35:54;;;;;;;18.33;3.05;;;0.30;99.90;;;;;;4990944;28;20092;-82
2021/12/20 08:38:20;;;;;;;16.75;2.40;;;0.30;99.90;;;;;;4973616;28;20499;-81
2021/12/20 08:40:47;;;;;;;10.60;2.97;;;0.30;99.90;;;;;;4990259;28;20188;-82
2021/12/20 08:43:14;;;;;;;26.42;2.97;;;0.30;99.90;;;;;;4974376;28;20049;-82
2021/12/20 08:45:40;;;;;;;17.05;2.65;;;0.30;99.90;;;;;;4974413;28;20151;-81
2021/12/20 08:48:06;;;;;;;14.95;3.25;;;1.30;99.90;;;;;;4988380;28;20042;-81
2021/12/20 08:50:33;;;;;;;13.27;2.40;;;0.30;99.90;;;;;;4990020;28;20072;-81
2021/12/20 08:52:59;;;;;;;15.07;3.05;;;0.30;99.90;;;;;;4990526;28;20045;-81
2021/12/20 08:55:26;;;;;;;18.33;3.28;;;1.20;99.90;;;;;;4973346;28;20050;-81
2021/12/20 08:57:52;;;;;;;13.13;2.83;;;0.40;99.90;;;;;;4974196;28;20054;-81
2021/12/20 09:00:24;;;;;;;23.27;3.30;;;0.50;99.90;;;;;;4976301;28;20050;-81
2021/12/20 09:02:50;;;;;;;13.45;3.33;;;0.50;99.90;;;;;;4976531;28;20817;-81
2021/12/20 09:05:16;;;;;;;18.23;4.68;;;0.50;99.90;;;;;;4990666;28;20050;-81
2021/12/20 09:07:45;;;;;;;15.75;3.70;;;0.50;99.90;;;;;;4990361;28;20086;-81
2021/12/20 09:10:21;;;;;;;12.05;3.83;;;0.50;99.90;;;;;;4974436;28;20092;-81
2021/12/20 09:12:47;;;;;;;19.75;4.43;;;1.30;99.90;;;;;;4990441;28;20047;-79
2021/12/20 09:15:16;;;;;;;9.32;3.10;;;0.60;99.90;;;;;;4973537;28;20046;-81
2021/12/20 09:17:45;;;;;;;19.38;4.43;;;0.80;99.90;;;;;;4989905;28;20081;-80
2021/12/20 09:20:12;;;;;;;18.75;3.95;;;0.60;99.90;;;;;;4990662;28;20383;-80
2021/12/20 09:22:49;;;;;;;26.38;4.55;;;0.60;99.90;;;;;;4989486;28;20050;-80
2021/12/20 09:25:16;;;;;;;23.08;5.50;;;1.30;99.90;;;;;;4974295;28;20046;-80
2021/12/20 09:27:41;;;;;;;17.30;4.85;;;0.80;99.90;;;;;;4957777;28;20054;-80
2021/12/20 09:30:08;;;;;;;18.58;4.35;;;0.90;99.90;;;;;;4973447;28;20043;-80
2021/12/20 09:32:33;;;;;;;14.95;4.10;;;0.90;99.90;;;;;;4973269;28;20046;-81
2021/12/20 09:34:59;;;;;;;11.95;4.03;;;1.00;99.90;;;;;;4957634;28;20387;-80
2021/12/20 09:37:25;;;;;;;15.88;4.35;;;1.10;99.90;;;;;;4972893;28;20105;-81
2021/12/20 09:39:54;;;;;;;19.33;4.15;;;1.10;99.90;;;;;;4957512;28;20116;-80
2021/12/20 09:42:22;;;;;;;16.73;3.88;;;1.70;99.90;;;;;;4973718;28;20149;-81
2021/12/20 09:44:49;;;;;;;13.10;3.50;;;2.00;99.90;;;;;;4989598;28;20050;-81
2021/12/20 09:47:15;;;;;;;22.17;4.18;;;1.30;99.90;;;;;;4973551;28;20049;-81
2021/12/20 09:49:41;;;;;;;24.15;4.28;;;1.40;99.90;;;;;;4973534;28;20053;-80
2021/12/20 09:52:07;;;;;;;13.10;3.67;;;1.40;99.90;;;;;;4973726;28;20050;-81
2021/12/20 09:54:33;;;;;;;25.75;4.18;;;2.50;99.90;;;;;;4973382;28;20057;-81
2021/12/20 09:57:02;;;;;;;17.52;3.75;;;1.50;99.90;;;;;;4988972;28;20059;-80
2021/12/20 09:59:29;;;;;;;12.75;3.50;;;1.50;99.90;;;;;;4973584;28;20046;-81
2021/12/20 10:01:57;;;;;;;15.60;4.20;;;1.50;99.90;;;;;;4989475;28;20050;-81
2021/12/20 10:04:23;;;;;;;17.15;5.57;;;1.50;99.90;;;;;;4966864;28;20041;-81
2021/12/20 10:06:53;;;;;;;14.40;3.50;;;1.60;99.90;;;;;;5007510;28;20046;-81
2021/12/20 10:09:25;;;;;;;21.73;5.35;;;1.60;99.90;;;;;;4965151;28;20042;-81
2021/12/20 10:12:11;;;;;;;18.90;4.72;;;2.00;99.90;;;;;;4982226;28;20140;-81
2021/12/20 10:14:52;;;;;;;16.05;5.05;;;1.70;99.90;;;;;;4980686;28;20054;-81
2021/12/20 10:17:20;;;;;;;31.10;5.63;;;1.80;99.90;;;;;;4986037;28;20108;-81
2021/12/20 10:19:46;;;;;;;33.08;6.03;;;1.80;99.90;;;;;;4976241;28;20505;-81
2021/12/20 10:22:24;;;;;;;33.63;6.65;;;2.40;99.90;;;;;;4976077;28;20053;-82
2021/12/20 10:24:50;;;;;;;33.65;5.97;;;2.00;99.90;;;;;;4993028;28;20128;-81
2021/12/20 10:27:32;;;;;;;43.22;7.45;;;2.00;99.90;;;;;;4992495;28;20084;-81
2021/12/20 10:30:00;;;;;;;43.08;6.78;;;2.10;99.90;;;;;;4970440;28;20054;-81
2021/12/20 10:32:40;;;;;;;33.22;6.90;;;2.10;99.90;;;;;;4955139;28;20482;-82
2021/12/20 10:35:26;;;;;;;28.58;5.88;;;2.20;99.90;;;;;;4980878;28;20125;-82
2021/12/20 10:37:56;;;;;;;29.60;6.32;;;2.30;99.90;;;;;;4992151;28;20145;-81
2021/12/20 10:40:23;;;;;;;37.70;6.93;;;3.10;99.90;;;;;;4991382;28;20053;-81
2021/12/20 10:42:49;;;;;;;31.45;6.32;;;2.40;99.90;;;;;;4976011;28;20519;-82
2021/12/20 10:45:19;;;;;;;37.45;6.40;;;2.70;99.90;;;;;;4992041;28;20085;-82
2021/12/20 10:47:47;;;;;;;37.50;6.30;;;2.60;99.90;;;;;;4990900;28;20042;-82
2021/12/20 10:50:21;;;;;;;38.45;7.57;;;2.60;99.90;;;;;;4992541;28;20049;-82
2021/12/20 10:52:47;;;;;;;34.50;5.90;;;2.80;99.90;;;;;;4980377;28;20048;-82
2021/12/20 10:55:13;;;;;;;39.35;6.78;;;2.80;99.90;;;;;;4981506;28;20046;-82
2021/12/20 10:57:39;;;;;;;28.35;6.65;;;3.30;99.90;;;;;;5002862;28;20090;-82
2021/12/20 11:00:17;;;;;;;33.20;6.63;;;2.90;99.90;;;;;;4976583;28;20058;-82
2021/12/20 11:03:25;;;;;;;31.73;5.57;;;3.00;99.90;;;;;;4977147;28;20057;-82
2021/12/20 11:06:12;;;;;;;28.55;6.20;;;3.00;99.90;;;;;;4985875;28;20093;-82
2021/12/20 11:11:20;;;;;;;32.22;5.03;;;3.10;99.90;;;;;;4987567;28;20089;-82
2021/12/20 11:13:46;;;;;;;39.15;6.13;;;3.20;99.90;;;;;;4969045;28;20038;-82
2021/12/20 11:16:38;;;;;;;43.40;8.13;;;3.30;99.90;;;;;;4960564;28;20043;-81
2021/12/20 11:19:08;;;;;;;38.63;6.22;;;3.40;99.90;;;;;;4962302;28;20074;-82
2021/12/20 11:21:35;;;;;;;32.22;5.22;;;3.40;99.90;;;;;;4978086;28;20050;-82
2021/12/20 11:24:02;;;;;;;35.53;5.22;;;3.50;99.90;;;;;;4988474;28;20560;-82
2021/12/20 11:26:27;;;;;;;35.67;4.90;;;3.50;99.90;;;;;;4971827;28;20060;-82
2021/12/20 11:28:55;;;;;;;32.90;4.85;;;3.60;99.90;;;;;;4987083;28;20050;-82
2021/12/20 11:31:21;;;;;;;39.70;5.95;;;3.70;99.90;;;;;;4988020;28;20054;-82
2021/12/20 11:33:47;;;;;;;24.92;4.25;;;4.40;99.90;;;;;;4963773;28;20050;-82
2021/12/20 11:36:13;;;;;;;36.35;6.05;;;3.90;99.90;;;;;;4984113;28;20518;-82
2021/12/20 11:38:39;;;;;;;28.35;5.38;;;3.90;99.90;;;;;;4967917;28;20051;-82
2021/12/20 11:41:06;;;;;;;29.58;4.47;;;4.50;99.90;;;;;;4992838;28;20093;-81
2021/12/20 11:43:32;;;;;;;26.70;4.35;;;4.00;99.90;;;;;;4967287;28;20145;-82
2021/12/20 11:45:59;;;;;;;35.78;4.72;;;4.10;99.90;;;;;;4968518;28;20126;-81
2021/12/20 11:48:28;;;;;;;16.92;3.97;;;4.10;99.90;;;;;;4967728;28;20090;-81
2021/12/20 11:50:56;;;;;;;22.70;3.97;;;4.20;99.90;;;;;;4967525;28;20039;-82
2021/12/20 11:53:23;;;;;;;21.30;3.88;;;4.20;99.90;;;;;;4967993;28;20510;-81
2021/12/20 11:55:52;;;;;;;25.02;4.60;;;4.20;99.90;;;;;;4968440;28;20043;-82
2021/12/20 11:58:21;;;;;;;27.90;4.30;;;4.20;99.90;;;;;;4983130;28;20066;-81
2021/12/20 12:00:56;;;;;;;16.23;4.30;;;4.30;99.90;;;;;;4968551;28;20145;-81
2021/12/20 12:03:27;;;;;;;22.60;5.07;;;4.30;99.90;;;;;;4966649;28;20059;-82
2021/12/20 12:05:56;;;;;;;28.80;4.93;;;4.30;99.90;;;;;;4968685;28;20114;-81
2021/12/20 12:08:41;;;;;;;20.67;5.10;;;4.30;99.90;;;;;;4967377;28;20054;-81
2021/12/20 12:11:07;;;;;;;18.45;3.55;;;4.40;99.90;;;;;;4967209;28;20678;-82
2021/12/20 12:16:51;;;;;;;15.75;3.47;;;4.40;99.90;;;;;;4967932;28;20117;-81
2021/12/20 12:19:37;;;;;;;18.67;3.55;;;4.40;99.90;;;;;;4966331;28;20101;-81
2021/12/20 12:22:03;;;;;;;19.85;3.50;;;4.40;99.90;;;;;;4967879;28;20042;-81
2021/12/20 12:24:47;;;;;;;17.90;3.97;;;5.30;99.90;;;;;;4966923;28;20090;-81
2021/12/20 12:27:22;;;;;;;12.68;2.50;;;4.50;99.90;;;;;;4968000;28;20137;-82
2021/12/20 12:30:11;;;;;;;13.25;2.92;;;4.40;99.90;;;;;;4968316;28;20137;-81
2021/12/20 12:32:37;;;;;;;14.70;3.20;;;4.40;99.90;;;;;;4966530;28;20058;-81
2021/12/20 12:35:04;;;;;;;12.35;2.97;;;4.90;99.90;;;;;;4955576;28;20047;-81
2021/12/20 12:37:35;;;;;;;14.15;3.08;;;4.40;99.90;;;;;;4971260;28;20046;-81
2021/12/20 12:40:24;;;;;;;10.55;1.75;;;4.50;99.90;;;;;;4970792;28;20059;-81
2021/12/20 12:42:55;;;;;;;10.07;1.75;;;4.50;99.90;;;;;;4988210;28;20051;-81
2021/12/20 12:45:51;;;;;;;9.30;1.30;;;4.50;99.90;;;;;;4970739;28;20497;-81
2021/12/20 12:48:38;;;;;;;13.50;2.55;;;4.50;99.90;;;;;;4970407;28;20509;-81
2021/12/20 12:51:27;;;;;;;8.73;1.70;;;5.00;99.90;;;;;;4971713;28;20079;-81
2021/12/20 12:53:55;;;;;;;11.30;1.60;;;4.50;99.90;;;;;;4970337;28;20129;-81
2021/12/20 12:56:24;;;;;;;7.97;1.55;;;4.50;99.90;;;;;;4971366;28;20047;-81
2021/12/20 12:59:19;;;;;;;6.63;1.00;;;4.40;99.90;;;;;;4970744;28;20055;-81
2021/12/20 13:01:57;;;;;;;4.03;0.88;;;4.40;99.90;;;;;;4954197;28;20478;-81
2021/12/20 13:04:58;;;;;;;4.78;0.80;;;4.40;99.90;;;;;;4971040;28;20043;-81
2021/12/20 13:07:27;;;;;;;5.30;1.20;;;4.40;99.90;;;;;;4953458;28;20465;-81
2021/12/20 13:09:55;;;;;;;6.30;1.58;;;4.30;99.90;;;;;;4971680;28;20134;-81